Time;durP1;ratioP1;P1;durP2;ratioP2;P2;SDS_P1;SDS_P2;PMS_P1;PMS_P2;Temp;Humidity;BMP_temperature;BMP_pressure;BME280_temperature;BME280_humidity;BME280_pressure;Samples;Min_cycle;Max_cycle;Signal;HPM_P1;HPM_P2
2022/01/07 05:25:12;;;;;;;10.20;6.15;;;27.30;76.70;;;;;;4143353;28;20055;-67
2022/01/07 05:27:17;;;;;;;12.93;5.97;;;27.30;77.00;;;;;;4157063;28;20060;-66
2022/01/07 05:29:22;;;;;;;10.48;5.18;;;27.30;76.10;;;;;;4155950;28;20207;-65
2022/01/07 05:31:27;;;;;;;11.13;5.20;;;27.40;75.60;;;;;;4152423;28;20074;-65
2022/01/07 05:33:32;;;;;;;13.38;5.85;;;27.50;75.40;;;;;;4153977;28;20041;-66
2022/01/07 05:35:36;;;;;;;10.60;5.65;;;27.40;75.80;;;;;;4141336;28;20041;-66
2022/01/07 05:37:41;;;;;;;17.02;6.88;;;27.60;74.80;;;;;;4155898;28;20068;-66
2022/01/07 05:39:46;;;;;;;8.30;4.97;;;27.60;75.70;;;;;;4151369;28;20064;-65
2022/01/07 05:41:50;;;;;;;9.65;4.80;;;27.60;74.70;;;;;;4152451;28;20037;-65
2022/01/07 05:43:55;;;;;;;8.23;4.70;;;27.60;74.10;;;;;;4151212;28;20341;-65
2022/01/07 05:46:00;;;;;;;9.07;4.53;;;27.60;73.70;;;;;;4151809;28;20435;-65
2022/01/07 05:48:05;;;;;;;9.15;3.80;;;27.90;71.70;;;;;;4143634;28;20136;-65
2022/01/07 05:50:10;;;;;;;8.13;4.40;;;27.80;71.20;;;;;;4143772;28;20108;-65
2022/01/07 05:52:15;;;;;;;7.88;5.32;;;27.80;72.00;;;;;;4157088;28;20080;-65
2022/01/07 05:54:19;;;;;;;8.73;5.07;;;27.90;71.10;;;;;;4154096;28;20465;-66
2022/01/07 05:56:24;;;;;;;8.57;4.95;;;27.70;71.50;;;;;;4153954;28;20099;-66
2022/01/07 05:58:29;;;;;;;9.25;5.00;;;27.80;72.20;;;;;;4154627;28;20045;-66
2022/01/07 06:00:33;;;;;;;10.10;5.00;;;27.70;72.40;;;;;;4153806;28;20041;-66
2022/01/07 06:02:38;;;;;;;9.90;4.82;;;27.70;72.40;;;;;;4154121;28;20046;-66
2022/01/07 06:04:43;;;;;;;9.05;5.60;;;27.80;72.60;;;;;;4153834;28;20041;-66
2022/01/07 06:06:48;;;;;;;9.68;5.10;;;27.80;72.10;;;;;;4154722;28;20069;-66
2022/01/07 06:08:52;;;;;;;8.45;5.63;;;27.90;72.40;;;;;;4168767;28;20083;-66
2022/01/07 06:10:57;;;;;;;9.13;5.70;;;27.80;73.00;;;;;;4154272;28;20133;-66
2022/01/07 06:13:01;;;;;;;10.93;5.53;;;27.90;72.10;;;;;;4154459;28;20057;-66
2022/01/07 06:15:07;;;;;;;9.77;5.45;;;27.90;72.50;;;;;;4156178;28;20049;-67
2022/01/07 06:17:12;;;;;;;13.55;5.43;;;27.90;72.70;;;;;;4150470;28;20049;-66
2022/01/07 06:19:16;;;;;;;8.88;4.85;;;27.90;72.90;;;;;;4154000;28;20056;-67
2022/01/07 06:21:20;;;;;;;9.68;5.90;;;28.10;72.30;;;;;;4152211;28;20042;-67
2022/01/07 06:23:29;;;;;;;9.85;5.53;;;28.10;72.20;;;;;;4160368;28;20095;-67
2022/01/07 06:25:36;;;;;;;9.95;5.88;;;28.10;71.90;;;;;;4174476;28;20041;-66
2022/01/07 06:27:40;;;;;;;8.75;5.30;;;28.20;71.50;;;;;;4170095;28;20400;-67
2022/01/07 06:29:45;;;;;;;8.63;4.35;;;28.30;71.00;;;;;;4164986;28;20103;-66
2022/01/07 06:31:51;;;;;;;8.50;4.13;;;28.30;70.20;;;;;;4162510;28;20038;-67
2022/01/07 06:33:56;;;;;;;8.65;3.88;;;28.40;68.80;;;;;;4178595;28;20049;-67
2022/01/07 06:36:01;;;;;;;7.00;3.90;;;28.50;68.40;;;;;;4178720;28;20059;-67
2022/01/07 06:38:11;;;;;;;9.27;3.78;;;28.50;67.90;;;;;;4178942;28;20048;-67
2022/01/07 06:40:15;;;;;;;8.00;4.00;;;28.40;67.70;;;;;;4178793;28;20045;-67
2022/01/07 06:42:19;;;;;;;8.15;3.72;;;28.30;69.20;;;;;;4178877;28;20518;-67
2022/01/07 06:44:25;;;;;;;12.25;4.30;;;28.30;69.70;;;;;;4178500;28;20049;-67
2022/01/07 06:46:31;;;;;;;9.15;3.92;;;28.30;69.70;;;;;;4177854;28;20073;-66
2022/01/07 06:48:36;;;;;;;10.48;4.25;;;28.50;69.70;;;;;;4177202;28;20520;-67
2022/01/07 06:50:41;;;;;;;7.25;4.32;;;28.60;69.40;;;;;;4169330;28;20041;-67
2022/01/07 06:52:46;;;;;;;11.30;4.30;;;28.60;68.50;;;;;;4188150;28;20500;-66
2022/01/07 06:54:50;;;;;;;6.93;4.13;;;28.60;69.10;;;;;;4169617;28;20049;-66
2022/01/07 06:56:55;;;;;;;7.43;3.63;;;28.50;69.20;;;;;;4169738;28;20522;-65
2022/01/07 06:58:59;;;;;;;7.25;3.45;;;28.40;68.80;;;;;;4172058;28;20111;-65
2022/01/07 07:01:05;;;;;;;11.05;4.05;;;28.40;68.40;;;;;;4176310;28;20037;-66
2022/01/07 07:03:10;;;;;;;10.30;4.93;;;28.40;68.40;;;;;;4175508;28;20045;-65
2022/01/07 07:05:14;;;;;;;10.05;5.30;;;28.40;67.90;;;;;;4177566;28;20484;-66
2022/01/07 07:07:19;;;;;;;9.70;5.07;;;28.50;68.30;;;;;;4176625;28;20045;-66
2022/01/07 07:09:23;;;;;;;8.38;4.70;;;28.50;67.90;;;;;;4178090;28;20520;-66
2022/01/07 07:11:28;;;;;;;7.20;4.60;;;28.60;68.10;;;;;;4177882;28;20099;-67
2022/01/07 07:13:33;;;;;;;7.47;4.43;;;28.80;67.20;;;;;;4177717;28;20052;-67
2022/01/07 07:15:37;;;;;;;13.43;4.90;;;28.80;66.70;;;;;;4177788;28;20442;-66
2022/01/07 07:17:44;;;;;;;12.18;4.22;;;28.60;66.60;;;;;;4178076;28;20051;-66
2022/01/07 07:19:49;;;;;;;7.00;4.07;;;28.60;67.40;;;;;;4175242;28;20136;-65
2022/01/07 07:21:53;;;;;;;6.97;4.78;;;28.60;65.70;;;;;;4171939;28;20127;-66
2022/01/07 07:23:58;;;;;;;14.00;5.38;;;28.80;66.60;;;;;;4172205;28;20050;-66
2022/01/07 07:26:02;;;;;;;12.10;4.57;;;28.80;65.50;;;;;;4175675;28;20057;-67
2022/01/07 07:28:07;;;;;;;8.35;3.75;;;28.70;66.30;;;;;;4178780;28;20342;-66
2022/01/07 07:30:12;;;;;;;6.65;3.80;;;28.70;66.60;;;;;;4178243;28;20041;-66
2022/01/07 07:32:22;;;;;;;7.95;3.42;;;28.70;66.80;;;;;;4175449;28;20065;-67
2022/01/07 07:34:56;;;;;;;8.10;3.28;;;28.70;65.90;;;;;;4161873;28;20048;-66
2022/01/07 07:36:51;;;;;;;6.40;3.60;;;28.90;66.60;;;;;;4170399;28;20064;-66
2022/01/07 07:39:01;;;;;;;9.85;3.42;;;28.90;65.20;;;;;;4169704;28;20124;-66
2022/01/07 07:41:10;;;;;;;7.95;4.22;;;28.90;65.40;;;;;;4176388;28;20107;-66
2022/01/07 07:43:14;;;;;;;9.32;4.40;;;28.90;65.30;;;;;;4177864;28;20048;-66
2022/01/07 07:45:18;;;;;;;8.73;4.22;;;28.90;64.90;;;;;;4177768;28;20052;-66
2022/01/07 07:47:23;;;;;;;7.18;3.65;;;28.90;65.40;;;;;;4178344;28;20057;-66
2022/01/07 07:49:27;;;;;;;9.23;4.40;;;28.90;65.30;;;;;;4178295;28;20288;-66
2022/01/07 07:51:32;;;;;;;10.00;4.25;;;28.80;65.60;;;;;;4174931;28;20053;-65
2022/01/07 07:53:37;;;;;;;6.60;3.55;;;28.80;65.20;;;;;;4176943;28;20133;-66
2022/01/07 07:55:42;;;;;;;9.57;3.90;;;28.80;64.60;;;;;;4171872;28;20045;-65
2022/01/07 07:57:46;;;;;;;7.35;4.15;;;28.80;65.10;;;;;;4171908;28;20073;-65
2022/01/07 07:59:50;;;;;;;8.18;4.35;;;28.80;64.50;;;;;;4167774;28;20056;-65
2022/01/07 08:01:55;;;;;;;14.07;4.38;;;29.00;64.60;;;;;;4168712;28;20043;-62
2022/01/07 08:03:59;;;;;;;8.32;5.13;;;29.00;63.60;;;;;;4177545;28;20060;-63
2022/01/07 08:06:04;;;;;;;11.70;5.65;;;29.10;64.00;;;;;;4171707;28;20442;-64
2022/01/07 08:08:08;;;;;;;11.20;5.70;;;29.00;64.20;;;;;;4172300;28;20393;-63
2022/01/07 08:10:13;;;;;;;11.55;6.15;;;29.00;64.70;;;;;;4172341;28;20114;-64
2022/01/07 08:12:28;;;;;;;10.50;6.32;;;28.90;64.20;;;;;;4177659;28;20362;-64
2022/01/07 08:16:49;;;;;;;7.25;4.20;;;28.90;63.20;;;;;;4180827;28;20140;-65
2022/01/07 08:18:54;;;;;;;7.30;4.18;;;29.10;61.00;;;;;;4180920;28;20148;-64
2022/01/07 08:21:06;;;;;;;12.77;6.50;;;29.00;61.80;;;;;;4181207;28;20044;-65
2022/01/07 08:23:12;;;;;;;11.95;6.50;;;29.10;62.90;;;;;;4180890;28;20049;-65
2022/01/07 08:25:16;;;;;;;9.45;5.70;;;29.00;63.40;;;;;;4180245;28;20099;-64
2022/01/07 08:27:21;;;;;;;10.85;5.78;;;29.00;63.60;;;;;;4179897;28;20037;-65
2022/01/07 08:29:40;;;;;;;10.82;5.45;;;28.90;64.10;;;;;;4178290;28;20377;-65
2022/01/07 08:36:09;;;;;;;10.38;4.63;;;29.00;64.70;;;;;;4178605;28;20057;-65
2022/01/07 08:38:13;;;;;;;8.10;5.20;;;29.00;64.80;;;;;;4179466;28;20398;-65
2022/01/07 08:40:18;;;;;;;16.42;8.35;;;29.00;65.10;;;;;;4176909;28;20555;-64
2022/01/07 08:42:26;;;;;;;12.93;7.55;;;29.10;64.10;;;;;;4178309;28;20056;-64
2022/01/07 08:44:30;;;;;;;12.05;8.63;;;29.10;64.20;;;;;;4179649;28;20558;-63
2022/01/07 08:46:34;;;;;;;12.45;8.45;;;29.10;63.10;;;;;;4178915;28;20104;-64
2022/01/07 08:48:39;;;;;;;14.43;9.25;;;29.10;63.50;;;;;;4174419;28;20083;-64
2022/01/07 08:50:44;;;;;;;14.75;8.50;;;29.20;63.60;;;;;;4173136;28;20091;-64
2022/01/07 08:52:50;;;;;;;15.48;8.48;;;29.10;63.60;;;;;;4174583;28;20538;-64
2022/01/07 08:54:54;;;;;;;12.50;8.32;;;29.10;64.20;;;;;;4173422;28;20123;-64
2022/01/07 08:56:59;;;;;;;11.30;6.50;;;29.20;64.00;;;;;;4173331;28;20034;-64
2022/01/07 08:59:05;;;;;;;15.13;8.38;;;29.30;63.40;;;;;;4173615;28;20120;-65
2022/01/07 09:01:12;;;;;;;20.25;10.88;;;29.20;63.60;;;;;;4177269;28;20055;-65
2022/01/07 09:03:17;;;;;;;14.85;8.63;;;29.10;64.10;;;;;;4179707;28;20036;-65
2022/01/07 09:05:23;;;;;;;12.48;7.68;;;29.30;63.80;;;;;;4177905;28;20385;-65
2022/01/07 09:07:30;;;;;;;11.90;7.43;;;29.10;64.00;;;;;;4176226;28;20044;-65
2022/01/07 09:09:34;;;;;;;12.65;7.75;;;29.00;64.40;;;;;;4177880;28;20045;-65
2022/01/07 09:11:40;;;;;;;11.35;7.53;;;29.10;64.20;;;;;;4177519;28;20045;-65
2022/01/07 09:13:45;;;;;;;14.20;8.18;;;29.00;64.40;;;;;;4178200;28;20065;-65
2022/01/07 09:15:50;;;;;;;15.38;7.88;;;28.90;64.10;;;;;;4175404;28;20045;-64
2022/01/07 09:17:55;;;;;;;11.63;7.60;;;28.90;64.70;;;;;;4176625;28;20041;-64
2022/01/07 09:20:00;;;;;;;13.95;7.07;;;29.00;65.10;;;;;;4177432;28;20044;-66
2022/01/07 09:22:06;;;;;;;12.80;7.00;;;29.10;64.30;;;;;;4176946;28;20507;-64
2022/01/07 09:24:11;;;;;;;13.02;8.23;;;29.10;65.20;;;;;;4176438;28;20128;-66
2022/01/07 09:26:15;;;;;;;10.77;8.70;;;29.10;64.60;;;;;;4177590;28;20064;-65
2022/01/07 09:28:20;;;;;;;16.38;9.88;;;29.10;64.80;;;;;;4178688;28;20047;-65
2022/01/07 09:30:28;;;;;;;15.32;10.15;;;29.00;64.60;;;;;;4178887;28;20403;-65
2022/01/07 09:32:38;;;;;;;15.27;9.15;;;29.00;64.30;;;;;;4168932;28;20069;-66
2022/01/07 09:34:42;;;;;;;16.58;12.10;;;29.00;64.70;;;;;;4177145;28;20504;-66
2022/01/07 09:36:47;;;;;;;15.40;8.98;;;29.00;64.50;;;;;;4177959;28;20041;-66
2022/01/07 09:38:51;;;;;;;14.30;7.28;;;29.10;64.80;;;;;;4176830;28;20048;-66
2022/01/07 09:40:56;;;;;;;15.98;6.05;;;29.00;64.80;;;;;;4177299;28;20196;-66
2022/01/07 09:43:04;;;;;;;11.30;5.15;;;28.90;64.70;;;;;;4171041;28;20443;-65
2022/01/07 09:45:11;;;;;;;14.20;5.65;;;29.00;64.00;;;;;;4169950;28;20049;-66
2022/01/07 09:47:17;;;;;;;13.73;5.63;;;29.00;64.10;;;;;;4173090;28;20131;-65
2022/01/07 09:49:22;;;;;;;10.63;5.55;;;29.00;64.60;;;;;;4175445;28;20454;-64
2022/01/07 09:51:27;;;;;;;10.40;6.82;;;28.90;64.90;;;;;;4177415;28;20051;-64
2022/01/07 09:53:32;;;;;;;12.85;7.13;;;28.90;64.10;;;;;;4175848;28;20055;-65
2022/01/07 09:55:43;;;;;;;14.52;7.45;;;29.00;65.20;;;;;;4175030;28;20043;-64
2022/01/07 09:57:49;;;;;;;16.95;7.70;;;28.90;66.10;;;;;;4176107;28;20431;-64
2022/01/07 09:59:54;;;;;;;19.45;7.47;;;28.90;65.80;;;;;;4176411;28;20041;-64
2022/01/07 10:02:01;;;;;;;18.05;8.40;;;28.80;65.90;;;;;;4175431;28;20053;-65
2022/01/07 10:04:06;;;;;;;17.25;8.65;;;28.80;66.00;;;;;;4176189;28;20507;-64
2022/01/07 10:06:25;;;;;;;20.17;7.97;;;28.80;66.30;;;;;;4192702;28;20525;-64
2022/01/07 10:08:29;;;;;;;18.33;7.85;;;28.80;65.40;;;;;;4177112;28;20063;-65
2022/01/07 10:10:36;;;;;;;192.30;30.13;;;28.80;65.80;;;;;;4175622;28;20041;-65
2022/01/07 10:13:06;;;;;;;81.32;15.38;;;28.80;65.90;;;;;;4177743;28;20040;-65
2022/01/07 10:15:26;;;;;;;118.10;19.67;;;28.80;65.00;;;;;;4170355;28;20488;-64
2022/01/07 10:17:30;;;;;;;39.70;11.00;;;28.80;65.20;;;;;;4176222;28;20099;-64
2022/01/07 10:19:40;;;;;;;28.00;8.88;;;28.70;64.90;;;;;;4171024;28;20056;-64
2022/01/07 10:21:57;;;;;;;15.20;7.75;;;28.70;65.20;;;;;;4177331;28;20508;-64
2022/01/07 10:24:05;;;;;;;19.88;7.78;;;28.70;64.80;;;;;;4170630;28;20042;-64
2022/01/07 10:26:15;;;;;;;14.63;7.20;;;28.70;64.90;;;;;;4169940;28;20037;-65
2022/01/07 10:28:21;;;;;;;15.63;7.43;;;28.60;64.50;;;;;;4176463;28;20049;-66
2022/01/07 10:30:26;;;;;;;20.75;7.45;;;28.60;65.40;;;;;;4178167;28;20072;-65
2022/01/07 10:32:32;;;;;;;14.95;7.88;;;28.60;65.80;;;;;;4168498;28;20037;-67
2022/01/07 10:34:36;;;;;;;18.83;8.02;;;28.60;66.00;;;;;;4178861;28;20057;-64
2022/01/07 10:36:41;;;;;;;17.35;8.88;;;28.50;66.30;;;;;;4178250;28;20098;-65
2022/01/07 10:38:52;;;;;;;26.77;12.25;;;28.50;66.80;;;;;;4178342;28;20041;-65
2022/01/07 10:40:59;;;;;;;22.25;12.38;;;28.50;66.30;;;;;;4176945;28;20052;-65
2022/01/07 10:43:25;;;;;;;28.75;13.82;;;28.40;66.60;;;;;;4179118;28;20372;-66
2022/01/07 10:45:29;;;;;;;28.60;14.00;;;28.40;67.50;;;;;;4178419;28;20128;-66
2022/01/07 10:47:36;;;;;;;26.02;14.27;;;28.30;68.00;;;;;;4178681;28;20495;-65
2022/01/07 10:49:41;;;;;;;28.77;15.32;;;28.30;68.20;;;;;;4173926;28;20519;-65
2022/01/07 10:51:54;;;;;;;29.55;16.27;;;28.30;68.10;;;;;;4175833;28;20060;-65
2022/01/07 10:54:07;;;;;;;35.40;16.20;;;28.30;68.80;;;;;;4176045;28;20057;-66
2022/01/07 10:56:20;;;;;;;32.83;15.10;;;28.20;69.30;;;;;;4175440;28;20128;-65
2022/01/07 10:58:24;;;;;;;35.83;15.18;;;28.20;69.70;;;;;;4175677;28;20045;-65
2022/01/07 11:00:29;;;;;;;31.08;14.43;;;28.10;70.10;;;;;;4173614;28;20090;-65
2022/01/07 11:02:34;;;;;;;29.30;15.05;;;28.10;70.60;;;;;;4173289;28;20106;-65
2022/01/07 11:04:40;;;;;;;27.10;15.55;;;28.10;70.90;;;;;;4173197;28;20092;-66
2022/01/07 11:06:46;;;;;;;31.60;16.67;;;28.00;71.10;;;;;;4175413;28;20041;-65
2022/01/07 11:08:52;;;;;;;43.25;20.63;;;28.00;71.50;;;;;;4174164;28;20049;-67
2022/01/07 11:10:57;;;;;;;51.40;24.75;;;27.90;71.90;;;;;;4172377;28;20684;-67
2022/01/07 11:13:01;;;;;;;49.30;22.90;;;28.00;72.10;;;;;;4174879;28;20115;-66
2022/01/07 11:15:09;;;;;;;49.15;24.15;;;27.90;72.40;;;;;;4175197;28;20069;-67
2022/01/07 11:17:20;;;;;;;46.05;22.40;;;27.80;73.40;;;;;;4175105;28;20041;-65
2022/01/07 11:19:33;;;;;;;46.42;21.25;;;27.80;73.10;;;;;;4172646;28;20049;-65
2022/01/07 11:21:39;;;;;;;44.95;22.55;;;27.70;73.10;;;;;;4172414;28;20454;-66
2022/01/07 11:23:44;;;;;;;42.85;20.77;;;27.70;73.00;;;;;;4173405;28;20110;-66
2022/01/07 11:26:00;;;;;;;43.33;20.85;;;27.70;73.20;;;;;;4174446;28;20057;-64
2022/01/07 11:28:13;;;;;;;51.30;21.35;;;27.70;73.60;;;;;;4160671;28;20279;-66
2022/01/07 11:30:20;;;;;;;45.95;22.20;;;27.70;73.80;;;;;;4165845;28;20040;-66
2022/01/07 11:32:31;;;;;;;46.90;21.98;;;27.70;74.10;;;;;;4168060;28;20543;-66
2022/01/07 11:34:36;;;;;;;42.88;22.85;;;27.70;74.30;;;;;;4175213;28;20454;-67
2022/01/07 11:36:40;;;;;;;48.35;24.83;;;27.60;74.30;;;;;;4170488;28;20124;-67
2022/01/07 11:38:46;;;;;;;51.40;27.58;;;27.60;74.40;;;;;;4169148;28;20092;-66
2022/01/07 11:40:51;;;;;;;47.75;26.75;;;27.60;74.70;;;;;;4168731;28;20049;-66
2022/01/07 11:43:05;;;;;;;51.25;27.58;;;27.60;74.90;;;;;;4170126;28;20099;-65
2022/01/07 11:45:37;;;;;;;52.70;27.95;;;27.50;74.90;;;;;;4172485;28;20049;-67
2022/01/07 11:47:50;;;;;;;60.25;30.80;;;27.50;74.80;;;;;;4170758;28;20045;-67
2022/01/07 11:50:05;;;;;;;71.32;30.05;;;27.50;74.90;;;;;;4170228;28;20045;-68
2022/01/07 11:52:34;;;;;;;71.55;31.15;;;27.40;74.70;;;;;;4172546;28;20049;-66
2022/01/07 11:54:39;;;;;;;68.45;30.45;;;27.40;74.60;;;;;;4175080;28;20446;-65
2022/01/07 11:56:43;;;;;;;60.85;33.42;;;27.40;74.80;;;;;;4170978;28;20054;-67
2022/01/07 11:58:56;;;;;;;55.28;31.27;;;27.40;74.30;;;;;;4175439;28;20496;-67
2022/01/07 12:01:03;;;;;;;58.13;31.02;;;27.40;74.10;;;;;;4172548;28;20082;-67
2022/01/07 12:03:08;;;;;;;60.72;31.92;;;27.30;74.50;;;;;;4169850;28;20049;-66
2022/01/07 12:05:29;;;;;;;58.60;33.40;;;27.30;73.90;;;;;;4173622;28;20344;-65
2022/01/07 12:07:48;;;;;;;56.55;33.83;;;27.30;73.90;;;;;;4177133;28;20151;-65
2022/01/07 12:09:53;;;;;;;60.33;34.30;;;27.30;73.10;;;;;;4178343;28;20119;-66
2022/01/07 12:12:13;;;;;;;52.70;32.75;;;27.20;73.20;;;;;;4160585;28;20056;-65
2022/01/07 12:14:44;;;;;;;57.67;33.95;;;27.20;72.40;;;;;;4178331;28;20491;-67
2022/01/07 12:16:52;;;;;;;48.63;30.65;;;27.20;72.80;;;;;;4173697;28;20512;-66
2022/01/07 12:19:28;;;;;;;53.15;29.05;;;27.10;71.80;;;;;;4172234;28;20660;-66
2022/01/07 12:21:36;;;;;;;41.17;25.60;;;27.10;72.30;;;;;;4174068;28;20120;-66
2022/01/07 12:23:42;;;;;;;44.70;25.80;;;27.10;71.80;;;;;;4171363;28;20050;-66
2022/01/07 12:25:49;;;;;;;40.65;24.50;;;27.00;71.80;;;;;;4171496;28;20045;-68
2022/01/07 12:28:01;;;;;;;45.58;23.67;;;27.00;71.90;;;;;;4172320;28;20040;-67
2022/01/07 12:30:06;;;;;;;41.38;23.55;;;27.00;72.00;;;;;;4173347;28;20041;-67
2022/01/07 12:32:11;;;;;;;37.53;22.00;;;27.00;71.80;;;;;;4170168;28;20415;-66
2022/01/07 12:34:24;;;;;;;37.35;22.48;;;27.00;71.90;;;;;;4171583;28;20123;-67
2022/01/07 12:36:34;;;;;;;36.83;20.60;;;26.90;71.90;;;;;;4173281;28;20045;-66
2022/01/07 12:38:39;;;;;;;31.20;19.77;;;26.90;72.10;;;;;;4173914;28;20087;-68
2022/01/07 12:40:55;;;;;;;33.55;19.45;;;26.90;72.30;;;;;;4178234;28;20068;-67
2022/01/07 12:43:00;;;;;;;33.55;18.05;;;26.90;72.10;;;;;;4174108;28;20091;-67
2022/01/07 12:45:05;;;;;;;34.33;18.25;;;27.00;71.90;;;;;;4171099;28;20041;-66
2022/01/07 12:47:13;;;;;;;36.47;20.48;;;27.00;72.10;;;;;;4173935;28;20044;-66
2022/01/07 12:49:17;;;;;;;31.92;19.60;;;26.90;72.10;;;;;;4171737;28;20052;-66
2022/01/07 12:51:22;;;;;;;32.15;18.92;;;26.90;72.40;;;;;;4172044;28;20047;-67
2022/01/07 12:53:27;;;;;;;35.72;19.92;;;26.90;72.30;;;;;;4172735;28;20051;-67
2022/01/07 12:55:31;;;;;;;36.13;18.92;;;26.90;72.80;;;;;;4171314;28;20118;-66
2022/01/07 12:57:47;;;;;;;34.40;19.35;;;27.00;72.90;;;;;;4173842;28;20132;-66
2022/01/07 13:00:11;;;;;;;33.42;18.75;;;26.90;73.00;;;;;;4175841;28;20099;-66
2022/01/07 13:02:28;;;;;;;33.97;18.30;;;26.80;72.70;;;;;;4175619;28;20079;-66
2022/01/07 13:04:37;;;;;;;34.72;18.38;;;26.80;73.20;;;;;;4172560;28;20057;-66
2022/01/07 13:06:46;;;;;;;28.48;16.73;;;26.80;73.80;;;;;;4171968;28;20124;-66
2022/01/07 13:08:51;;;;;;;31.10;16.52;;;26.70;73.40;;;;;;4179023;28;20295;-66
2022/01/07 13:10:58;;;;;;;31.63;18.00;;;26.60;72.70;;;;;;4178178;28;20036;-66
2022/01/07 13:13:24;;;;;;;27.67;17.27;;;26.60;73.00;;;;;;4172081;28;20049;-66
2022/01/07 13:15:46;;;;;;;33.88;17.70;;;26.60;73.40;;;;;;4169845;28;20436;-66
2022/01/07 13:17:50;;;;;;;28.42;16.85;;;26.60;74.00;;;;;;4173409;28;20053;-66
2022/01/07 13:19:57;;;;;;;29.23;16.92;;;26.60;74.00;;;;;;4171598;28;20500;-66
2022/01/07 13:22:01;;;;;;;30.40;17.70;;;26.60;74.70;;;;;;4174926;28;20195;-66
2022/01/07 13:24:06;;;;;;;36.03;17.52;;;26.50;75.20;;;;;;4176216;28;20048;-66
2022/01/07 13:26:11;;;;;;;28.02;17.33;;;26.60;75.50;;;;;;4172987;28;20036;-66
2022/01/07 13:28:16;;;;;;;29.80;18.33;;;26.50;75.50;;;;;;4169582;28;20096;-66
2022/01/07 13:30:49;;;;;;;27.50;18.55;;;26.50;75.40;;;;;;4171120;28;20080;-66
2022/01/07 13:33:07;;;;;;;33.78;18.20;;;26.40;75.40;;;;;;4174075;28;20052;-66
2022/01/07 13:35:31;;;;;;;30.25;17.98;;;26.30;75.70;;;;;;4172645;28;20037;-66
2022/01/07 13:37:36;;;;;;;34.38;18.50;;;26.20;76.80;;;;;;4173676;28;20134;-66
2022/01/07 13:39:51;;;;;;;28.63;18.15;;;26.30;76.40;;;;;;4173331;28;20041;-66
2022/01/07 13:42:03;;;;;;;31.88;18.52;;;26.20;76.50;;;;;;4169430;28;20041;-66
2022/01/07 13:44:08;;;;;;;33.75;21.38;;;26.20;76.60;;;;;;4177084;28;20128;-66
2022/01/07 13:46:20;;;;;;;38.17;21.73;;;26.10;77.10;;;;;;4170348;28;20488;-66
2022/01/07 13:48:25;;;;;;;42.38;23.33;;;26.00;77.00;;;;;;4174696;28;20041;-66
2022/01/07 13:50:32;;;;;;;45.40;23.45;;;26.00;77.30;;;;;;4171034;28;20041;-66
2022/01/07 13:52:36;;;;;;;39.97;23.13;;;26.00;77.30;;;;;;4171766;28;20049;-66
2022/01/07 13:54:43;;;;;;;40.55;22.95;;;26.00;77.70;;;;;;4170875;28;20083;-66
2022/01/07 13:56:57;;;;;;;38.70;21.25;;;26.10;77.60;;;;;;4171021;28;20567;-66
2022/01/07 13:59:03;;;;;;;33.38;21.17;;;26.00;77.70;;;;;;4168291;28;20037;-66
2022/01/07 14:01:08;;;;;;;40.97;22.15;;;26.00;77.80;;;;;;4172579;28;20044;-66
2022/01/07 14:03:14;;;;;;;39.45;22.75;;;26.00;78.20;;;;;;4172196;28;20045;-66
2022/01/07 14:05:21;;;;;;;41.10;23.33;;;26.00;78.60;;;;;;4170412;28;20037;-66
2022/01/07 14:07:47;;;;;;;48.85;24.05;;;26.00;78.70;;;;;;4171872;28;20134;-66
2022/01/07 14:10:13;;;;;;;40.67;23.48;;;26.00;79.30;;;;;;4161989;28;20408;-66
2022/01/07 14:12:23;;;;;;;39.92;23.23;;;25.90;79.50;;;;;;4162089;28;20052;-67
2022/01/07 14:14:35;;;;;;;41.08;23.42;;;25.90;79.70;;;;;;4162163;28;20461;-67
2022/01/07 14:16:47;;;;;;;50.83;23.50;;;25.90;79.90;;;;;;4161804;28;20049;-66
2022/01/07 14:18:59;;;;;;;41.65;24.42;;;25.80;80.40;;;;;;4174954;28;20084;-67
2022/01/07 14:21:05;;;;;;;45.70;24.83;;;25.80;80.50;;;;;;4178363;28;20060;-66
2022/01/07 14:23:14;;;;;;;43.53;24.27;;;25.80;80.90;;;;;;4178108;28;20049;-67
2022/01/07 14:25:20;;;;;;;40.38;23.35;;;25.70;80.90;;;;;;4178085;28;20052;-66
2022/01/07 14:27:33;;;;;;;44.97;23.85;;;25.70;81.00;;;;;;4178484;28;20099;-66
2022/01/07 14:29:38;;;;;;;37.95;22.33;;;25.70;81.20;;;;;;4178842;28;20607;-66
2022/01/07 14:31:43;;;;;;;41.10;22.98;;;25.70;81.30;;;;;;4178166;28;20064;-66
2022/01/07 14:33:48;;;;;;;41.83;23.05;;;25.60;81.50;;;;;;4177087;28;20047;-66
2022/01/07 14:35:53;;;;;;;41.00;22.77;;;25.60;81.50;;;;;;4178255;28;20053;-66
2022/01/07 14:37:57;;;;;;;40.03;22.40;;;25.60;81.70;;;;;;4178092;28;20057;-67
2022/01/07 14:40:03;;;;;;;37.75;22.65;;;25.50;81.90;;;;;;4178326;28;20501;-66
2022/01/07 14:42:08;;;;;;;39.70;22.60;;;25.60;82.10;;;;;;4177881;28;20048;-67
2022/01/07 14:44:12;;;;;;;36.45;22.00;;;25.50;81.80;;;;;;4178255;28;20168;-66
2022/01/07 14:46:31;;;;;;;45.40;23.67;;;25.50;81.70;;;;;;4177647;28;20116;-66
2022/01/07 14:48:36;;;;;;;44.67;23.45;;;25.50;81.60;;;;;;4177964;28;20471;-66
2022/01/07 14:50:41;;;;;;;39.78;23.23;;;25.40;81.60;;;;;;4178293;28;20067;-66
2022/01/07 14:52:46;;;;;;;41.83;23.60;;;25.40;81.60;;;;;;4177889;28;20431;-67
2022/01/07 14:54:50;;;;;;;44.88;23.85;;;25.40;81.80;;;;;;4178463;28;20045;-67
2022/01/07 14:56:56;;;;;;;37.40;23.45;;;25.40;81.90;;;;;;4178512;28;20049;-67
2022/01/07 14:59:09;;;;;;;50.30;25.30;;;25.40;82.30;;;;;;4178191;28;20492;-67
2022/01/07 15:01:16;;;;;;;42.90;23.33;;;25.30;82.10;;;;;;4178063;28;20051;-66
2022/01/07 15:03:20;;;;;;;45.85;23.45;;;25.30;82.10;;;;;;4178321;28;20048;-67
2022/01/07 15:05:25;;;;;;;39.85;23.05;;;25.30;81.90;;;;;;4178064;28;20048;-67
2022/01/07 15:07:41;;;;;;;41.35;23.63;;;25.20;81.90;;;;;;4180648;28;20045;-66
2022/01/07 15:09:46;;;;;;;43.30;22.30;;;25.30;82.10;;;;;;4181283;28;20038;-66
2022/01/07 15:11:51;;;;;;;40.80;22.77;;;25.20;82.00;;;;;;4181762;28;20041;-66
2022/01/07 15:13:55;;;;;;;38.72;22.70;;;25.20;82.00;;;;;;4181698;28;20068;-67
2022/01/07 15:18:04;;;;;;;40.28;22.13;;;25.20;82.10;;;;;;4181593;28;20064;-65
2022/01/07 15:20:09;;;;;;;39.58;22.23;;;25.20;82.10;;;;;;4181218;28;20127;-70
2022/01/07 15:22:14;;;;;;;40.97;22.45;;;25.10;82.30;;;;;;4181271;28;20041;-67
2022/01/07 15:24:20;;;;;;;38.50;22.15;;;25.10;82.20;;;;;;4181274;28;20079;-67
2022/01/07 15:26:24;;;;;;;34.97;21.40;;;25.10;82.40;;;;;;4181539;28;20427;-67
2022/01/07 15:28:29;;;;;;;38.58;22.25;;;25.10;82.70;;;;;;4181759;28;20049;-67
2022/01/07 15:30:38;;;;;;;41.55;21.85;;;25.00;83.00;;;;;;4180979;28;20131;-66
2022/01/07 15:32:42;;;;;;;39.35;22.70;;;25.00;83.10;;;;;;4173937;28;20052;-66
2022/01/07 15:34:47;;;;;;;34.78;22.40;;;24.90;83.30;;;;;;4164696;28;20064;-67
2022/01/07 15:36:53;;;;;;;42.58;22.50;;;24.90;83.40;;;;;;4164803;28;20052;-65
2022/01/07 15:38:58;;;;;;;32.13;21.48;;;24.90;83.60;;;;;;4164912;28;20057;-66
2022/01/07 15:41:03;;;;;;;38.00;22.08;;;24.90;83.80;;;;;;4165884;28;20053;-66
2022/01/07 15:43:08;;;;;;;39.35;23.38;;;24.90;83.70;;;;;;4164740;28;20156;-67
2022/01/07 15:45:12;;;;;;;35.92;21.13;;;24.90;83.80;;;;;;4164461;28;20128;-67
2022/01/07 15:47:17;;;;;;;39.33;23.40;;;24.80;84.20;;;;;;4164810;28;20080;-66
2022/01/07 15:49:21;;;;;;;42.67;23.23;;;24.80;84.20;;;;;;4165577;28;20042;-67
2022/01/07 15:51:26;;;;;;;34.30;22.80;;;24.80;84.20;;;;;;4164677;28;20389;-67
2022/01/07 15:53:30;;;;;;;40.90;23.42;;;24.80;84.20;;;;;;4181574;28;20045;-66
2022/01/07 15:55:34;;;;;;;36.70;22.73;;;24.70;84.10;;;;;;4181326;28;20095;-65
2022/01/07 15:57:39;;;;;;;38.72;24.13;;;24.70;84.50;;;;;;4180913;28;20427;-66
2022/01/07 15:59:43;;;;;;;40.40;24.83;;;24.70;84.40;;;;;;4181227;28;20049;-67
2022/01/07 16:01:48;;;;;;;40.13;23.98;;;24.60;84.40;;;;;;4180263;28;20041;-66
2022/01/07 16:03:53;;;;;;;41.35;24.00;;;24.60;84.40;;;;;;4164736;28;20049;-66
2022/01/07 16:05:57;;;;;;;43.60;24.88;;;24.60;84.40;;;;;;4164208;28;20524;-66
2022/01/07 16:08:02;;;;;;;42.30;23.45;;;24.60;84.40;;;;;;4164205;28;20054;-66
2022/01/07 16:10:06;;;;;;;35.53;23.00;;;24.60;84.30;;;;;;4164228;28;20044;-67
2022/01/07 16:12:11;;;;;;;40.90;22.48;;;24.50;84.40;;;;;;4165887;28;20056;-67
2022/01/07 16:14:16;;;;;;;32.63;21.83;;;24.50;84.50;;;;;;4181053;28;20071;-68
2022/01/07 16:16:21;;;;;;;35.70;21.70;;;24.50;84.50;;;;;;4181009;28;20561;-65
2022/01/07 16:18:25;;;;;;;31.75;21.38;;;24.50;84.70;;;;;;4180786;28;20045;-66
2022/01/07 16:20:30;;;;;;;37.72;22.20;;;24.40;84.80;;;;;;4180494;28;20049;-66
2022/01/07 16:22:36;;;;;;;35.28;22.23;;;24.40;85.20;;;;;;4180503;28;20049;-66
2022/01/07 16:24:41;;;;;;;39.10;22.23;;;24.30;85.40;;;;;;4180050;28;20080;-66